Airfield :
LOGIN :

Register | Disclaimer

   EN    FR    IT 

 










Legend :    VFR   Marginal VFR   IFR   Intensive IFR   Very Intensive IFR
Visi :
Ceiling :
>= 8 km
>= 3000ft
5 to 8 km
1000 to 3000 ft
1500m to 5 km
500 to 1000 ft
800 to 1500m
200 to 500 ft
< 800m
< 200 ft
Symbols :   Thunderstorms  Fog  Heavy snow  Heavy precipitations  Wind > 20 kt
SIGMETs :     Misc.  Thunderstorms  Icing  Turbulence  Mountain Waves  Volcanic Ashes







- Airport Elevation : 412 ft
- IATA code : ADB


LTBJ - Adnan Menderes

CURRENT METAR :
  • 201150Z 18005KT 120V240 9999 FEW030 17/10 Q1019 NOSIG RMK RWY16 15006KT 100V190

EXPIRED METARs :
  • 201120Z 16005KT 110V200 9999 FEW030 16/09 Q1019 NOSIG RMK RWY16 16005KT 120V190
  • 201050Z 14006KT 100V170 9999 FEW030 16/10 Q1019 NOSIG RMK RWY16 17005KT 120V210
  • 201020Z 16004KT 080V200 8000 FEW030 15/09 Q1020 NOSIG RMK RWY16 17005KT 140V220
  • 200950Z 18005KT 100V240 8000 NSC 15/09 Q1020 NOSIG RMK RWY16 16005KT 120V200
  • 200920Z 14004KT 040V210 6000 NSC 14/08 Q1020 NOSIG RMK RWY16 19006KT

TAF TAF LTBJ
Valid from the 20 at 12:00 until the 21 at 12:00 UTC


201040Z 2012/2112 VRB02KT 9999 FEW030
BECMG 2015/2018 CAVOK
PROB40 2102/2106 3200 BR
BECMG 2108/2111 FEW030
No reported NOTAMs for that airfield.



MET'MAP, your aeronautical weather chart ! - Copyright ORBIFLY December 2007 - Disclaimer

ORBIFLY MET'MAP TEAM :

Programming & Development : Alexandra Zaïnal
Concept & Development : Baudouin d'Aumeries
Co-Development & Prog : Marc-Olivier Méhu
Technical & hardware support : Manuel Goepfert

Contact : metmap@orbifly.com




SOURCES & CREDITS :

   NOAA